createdAt,value
2022-11-24T00:02:19.135Z,100.00
2022-11-24T00:05:05.132Z,100.00
2022-11-24T00:07:50.190Z,100.00
2022-11-24T00:10:35.737Z,100.00
2022-11-24T00:13:20.891Z,100.00
2022-11-24T00:16:23.946Z,100.00
2022-11-24T00:19:09.860Z,100.00
2022-11-24T00:21:55.041Z,100.00
2022-11-24T00:24:40.093Z,100.00
2022-11-24T00:27:24.927Z,100.00
2022-11-24T00:30:10.201Z,100.00
2022-11-24T00:32:55.103Z,100.00
2022-11-24T00:35:40.501Z,100.00
2022-11-24T00:38:26.437Z,100.00
2022-11-24T00:41:12.289Z,100.00
2022-11-24T00:43:58.257Z,100.00
2022-11-24T00:46:43.309Z,100.00
2022-11-24T00:49:28.699Z,100.00
2022-11-24T00:52:13.685Z,100.00
2022-11-24T00:54:58.501Z,100.00
2022-11-24T00:57:46.379Z,100.00
2022-11-24T01:00:31.339Z,100.00
2022-11-24T01:03:17.457Z,100.00
2022-11-24T01:06:08.519Z,100.00
2022-11-24T01:08:54.217Z,100.00
2022-11-24T01:11:39.218Z,100.00
2022-11-24T01:14:25.384Z,100.00
2022-11-24T01:17:10.288Z,100.00
2022-11-24T01:19:55.596Z,100.00
2022-11-24T01:22:41.091Z,100.00
2022-11-24T01:25:26.021Z,100.00
2022-11-24T01:28:10.931Z,100.00
2022-11-24T01:31:04.320Z,100.00
2022-11-24T01:33:49.614Z,100.00
2022-11-24T01:36:34.759Z,100.00
2022-11-24T01:39:20.220Z,100.00
2022-11-24T01:42:05.346Z,100.00
2022-11-24T01:45:33.900Z,100.00
2022-11-24T01:48:34.852Z,100.00
2022-11-24T01:51:25.152Z,100.00
2022-11-24T01:54:40.140Z,100.00
2022-11-24T01:57:30.160Z,100.00
2022-11-24T02:00:16.233Z,100.00
2022-11-24T02:03:01.621Z,100.00
2022-11-24T02:06:13.354Z,100.00
2022-11-24T02:09:22.737Z,100.00
2022-11-24T02:12:08.234Z,100.00
2022-11-24T02:14:54.831Z,100.00
2022-11-24T02:17:40.290Z,100.00
2022-11-24T02:20:26.106Z,100.00
2022-11-24T02:23:24.152Z,100.00
2022-11-24T02:26:27.830Z,100.00
2022-11-24T02:29:14.197Z,100.00
2022-11-24T02:32:01.816Z,100.00
2022-11-24T02:34:47.165Z,100.00
2022-11-24T02:37:32.041Z,100.00
2022-11-24T02:40:21.603Z,100.00
2022-11-24T02:43:15.318Z,100.00
2022-11-24T02:46:00.173Z,100.00
2022-11-24T02:48:45.655Z,100.00
2022-11-24T02:51:30.789Z,100.00
2022-11-24T02:54:16.020Z,100.00
2022-11-24T02:57:00.893Z,100.00
2022-11-24T02:59:45.710Z,100.00
2022-11-24T03:02:31.279Z,100.00
2022-11-24T03:05:16.882Z,100.00
2022-11-24T03:08:02.034Z,100.00
2022-11-24T03:10:47.230Z,100.00
2022-11-24T03:13:32.716Z,100.00
2022-11-24T03:16:17.785Z,100.00
2022-11-24T03:19:02.730Z,100.00
2022-11-24T03:21:47.660Z,100.00
2022-11-24T03:24:33.203Z,100.00
2022-11-24T03:27:18.637Z,100.00
2022-11-24T03:30:04.443Z,100.00
2022-11-24T03:32:54.071Z,100.00
2022-11-24T03:35:39.166Z,100.00
2022-11-24T03:38:24.598Z,100.00
2022-11-24T03:41:11.142Z,100.00
2022-11-24T03:43:56.129Z,100.00
2022-11-24T03:46:41.605Z,100.00
2022-11-24T03:49:27.012Z,100.00
2022-11-24T03:52:11.907Z,100.00
2022-11-24T03:54:57.264Z,100.00
2022-11-24T03:57:42.639Z,100.00
2022-11-24T04:00:27.756Z,100.00
2022-11-24T04:03:12.979Z,100.00
2022-11-24T04:05:58.354Z,100.00
2022-11-24T04:08:43.496Z,100.00
2022-11-24T04:11:28.659Z,100.00
2022-11-24T04:14:14.014Z,100.00
2022-11-24T04:16:59.169Z,100.00
2022-11-24T04:19:43.942Z,100.00
2022-11-24T04:22:29.066Z,100.00
2022-11-24T04:25:14.500Z,100.00
2022-11-24T04:27:59.380Z,100.00
2022-11-24T04:30:45.132Z,100.00
2022-11-24T04:33:31.030Z,100.00
2022-11-24T04:36:15.947Z,100.00
2022-11-24T04:39:20.122Z,100.00
2022-11-24T04:42:06.342Z,100.00
2022-11-24T04:44:52.097Z,100.00
2022-11-24T04:47:38.133Z,100.00
2022-11-24T04:50:23.322Z,100.00
2022-11-24T04:53:10.167Z,100.00
2022-11-24T04:55:55.474Z,100.00
2022-11-24T04:58:40.522Z,100.00
2022-11-24T05:01:25.588Z,100.00
2022-11-24T05:04:12.479Z,100.00
2022-11-24T05:06:57.446Z,100.00
2022-11-24T05:09:58.945Z,100.00
2022-11-24T05:12:51.002Z,100.00
2022-11-24T05:15:38.165Z,100.00
2022-11-24T05:18:23.960Z,100.00
2022-11-24T05:21:08.930Z,100.00
2022-11-24T05:23:53.764Z,100.00
2022-11-24T05:26:38.702Z,100.00
2022-11-24T05:29:23.605Z,100.00
2022-11-24T05:32:08.540Z,100.00
2022-11-24T05:34:53.330Z,100.00
2022-11-24T05:37:38.797Z,100.00
2022-11-24T05:40:24.497Z,100.00
2022-11-24T05:43:13.556Z,100.00
2022-11-24T05:46:00.416Z,100.00
2022-11-24T05:48:45.749Z,100.00
2022-11-24T05:51:30.870Z,100.00
2022-11-24T05:54:16.035Z,100.00
2022-11-24T05:57:01.184Z,100.00
2022-11-24T05:59:46.523Z,100.00
2022-11-24T06:02:31.616Z,100.00
2022-11-24T06:05:17.068Z,100.00
2022-11-24T06:08:02.006Z,100.00
2022-11-24T06:10:46.976Z,100.00
2022-11-24T06:13:32.319Z,100.00
2022-11-24T06:16:17.616Z,100.00
2022-11-24T06:19:03.000Z,100.00
2022-11-24T06:21:48.391Z,100.00
2022-11-24T06:24:33.559Z,100.00
2022-11-24T06:27:19.304Z,100.00
2022-11-24T06:30:05.116Z,100.00
2022-11-24T06:32:54.893Z,100.00
2022-11-24T06:35:40.027Z,100.00
2022-11-24T06:38:25.051Z,100.00
2022-11-24T06:41:13.606Z,100.00
2022-11-24T06:44:03.813Z,100.00
2022-11-24T06:46:49.048Z,100.00
2022-11-24T06:49:37.255Z,100.00
2022-11-24T06:52:23.423Z,100.00
2022-11-24T06:55:08.643Z,100.00
2022-11-24T06:57:53.799Z,100.00
2022-11-24T07:00:39.406Z,100.00
2022-11-24T07:03:24.600Z,100.00
2022-11-24T07:06:10.236Z,100.00
2022-11-24T07:08:55.401Z,100.00
2022-11-24T07:11:41.148Z,100.00
2022-11-24T07:14:26.421Z,100.00
2022-11-24T07:17:11.860Z,100.00
2022-11-24T07:19:56.657Z,100.00
2022-11-24T07:22:46.895Z,100.00
2022-11-24T07:25:32.026Z,100.00
2022-11-24T07:28:16.848Z,100.00
2022-11-24T07:31:11.303Z,100.00
2022-11-24T07:33:56.403Z,100.00
2022-11-24T07:36:42.384Z,100.00
2022-11-24T07:39:27.570Z,100.00
2022-11-24T07:42:13.110Z,100.00
2022-11-24T07:44:58.209Z,100.00
2022-11-24T07:47:44.014Z,100.00
2022-11-24T07:50:29.754Z,100.00
2022-11-24T07:53:15.648Z,100.00
2022-11-24T07:56:02.345Z,100.00
2022-11-24T07:58:52.600Z,100.00
2022-11-24T08:01:38.483Z,100.00
2022-11-24T08:04:23.793Z,100.00
2022-11-24T08:07:08.835Z,100.00
2022-11-24T08:09:54.343Z,100.00
2022-11-24T08:12:39.237Z,100.00
2022-11-24T08:15:24.035Z,100.00
2022-11-24T08:18:09.706Z,100.00
2022-11-24T08:20:58.268Z,100.00
2022-11-24T08:23:43.229Z,100.00
2022-11-24T08:26:28.273Z,100.00
2022-11-24T08:29:14.329Z,100.00
2022-11-24T08:31:59.495Z,100.00
2022-11-24T08:34:45.072Z,100.00
2022-11-24T08:37:29.804Z,100.00
2022-11-24T08:40:14.829Z,100.00
2022-11-24T08:43:00.948Z,100.00
2022-11-24T08:45:45.892Z,100.00
2022-11-24T08:48:33.876Z,100.00
2022-11-24T08:51:22.927Z,100.00
2022-11-24T08:54:10.233Z,100.00
2022-11-24T08:56:55.762Z,100.00
2022-11-24T08:59:40.755Z,100.00
2022-11-24T09:02:26.205Z,100.00
2022-11-24T09:05:43.331Z,100.00
2022-11-24T09:08:16.374Z,100.00
2022-11-24T09:11:08.077Z,100.00
2022-11-24T09:13:54.507Z,100.00
2022-11-24T09:16:40.032Z,100.00
2022-11-24T09:19:25.114Z,100.00
2022-11-24T09:22:10.488Z,100.00
2022-11-24T09:24:55.983Z,100.00
2022-11-24T09:27:40.985Z,100.00
2022-11-24T09:30:26.408Z,100.00
2022-11-24T09:33:11.283Z,100.00
2022-11-24T09:35:56.836Z,100.00
2022-11-24T09:38:41.883Z,100.00
2022-11-24T09:41:57.660Z,100.00
2022-11-24T09:45:04.566Z,100.00
2022-11-24T09:48:01.097Z,100.00
2022-11-24T09:50:49.411Z,100.00
2022-11-24T09:53:39.616Z,100.00
2022-11-24T09:56:31.074Z,100.00
2022-11-24T09:59:24.547Z,100.00
2022-11-24T10:02:12.607Z,100.00
2022-11-24T10:04:57.813Z,100.00
2022-11-24T10:07:55.045Z,100.00
2022-11-24T10:10:54.803Z,100.00
2022-11-24T10:13:49.124Z,100.00
2022-11-24T10:17:02.972Z,100.00
2022-11-24T10:20:24.196Z,100.00
2022-11-24T10:23:31.893Z,100.00
2022-11-24T10:26:18.348Z,100.00
2022-11-24T10:29:20.329Z,100.00
2022-11-24T10:32:19.545Z,100.00
2022-11-24T10:35:20.940Z,100.00
2022-11-24T10:38:20.586Z,100.00
2022-11-24T10:41:14.260Z,100.00
2022-11-24T10:43:59.079Z,100.00
2022-11-24T10:46:44.692Z,100.00
2022-11-24T10:49:32.268Z,100.00
2022-11-24T10:52:18.883Z,100.00
2022-11-24T10:55:05.464Z,100.00
2022-11-24T10:57:50.554Z,100.00
2022-11-24T11:00:35.908Z,99.92
2022-11-24T11:03:26.701Z,99.71
2022-11-24T11:06:13.816Z,99.78
2022-11-24T11:09:08.219Z,99.22
2022-11-24T11:11:53.445Z,99.35
2022-11-24T11:14:38.654Z,98.48
2022-11-24T11:17:34.299Z,99.29
2022-11-24T11:20:27.653Z,99.30
2022-11-24T11:23:16.284Z,100.00
2022-11-24T11:26:32.520Z,100.00
2022-11-24T11:35:33.626Z,100.00
2022-11-24T11:38:19.456Z,100.00
2022-11-24T11:41:07.067Z,100.00
2022-11-24T11:44:01.860Z,100.00
2022-11-24T11:46:47.392Z,100.00
2022-11-24T11:49:32.959Z,100.00
2022-11-24T11:52:46.235Z,100.00
2022-11-24T11:55:49.655Z,100.00
2022-11-24T12:01:25.495Z,100.00
2022-11-24T12:04:31.309Z,100.00
2022-11-24T12:07:43.244Z,100.00
2022-11-24T12:10:42.021Z,100.00
2022-11-24T12:13:36.298Z,100.00
2022-11-24T12:16:24.495Z,100.00
2022-11-24T12:19:28.880Z,100.00
2022-11-24T12:22:37.125Z,100.00
2022-11-24T12:26:04.903Z,100.00
2022-11-24T12:28:55.665Z,100.00
2022-11-24T12:32:06.865Z,100.00
2022-11-24T12:35:20.679Z,100.00
2022-11-24T12:38:44.815Z,100.00
2022-11-24T12:42:13.794Z,100.00
2022-11-24T12:45:12.667Z,100.00
2022-11-24T12:48:16.315Z,100.00
2022-11-24T12:51:04.495Z,100.00
2022-11-24T12:53:50.856Z,100.00
2022-11-24T12:57:09.259Z,100.00
2022-11-24T13:00:04.900Z,100.00
2022-11-24T13:03:19.080Z,100.00
2022-11-24T13:06:27.816Z,100.00
2022-11-24T13:09:14.113Z,100.00
2022-11-24T13:12:13.655Z,100.00
2022-11-24T13:14:59.191Z,100.00
2022-11-24T13:18:05.272Z,100.00
2022-11-24T13:20:55.919Z,100.00
2022-11-24T13:23:41.280Z,100.00
2022-11-24T13:26:42.090Z,100.00
2022-11-24T13:29:58.427Z,100.00
2022-11-24T13:32:43.332Z,100.00
2022-11-24T13:35:29.293Z,100.00
2022-11-24T13:38:48.461Z,100.00
2022-11-24T13:41:33.644Z,100.00
2022-11-24T13:44:25.162Z,100.00
2022-11-24T13:47:47.445Z,100.00
2022-11-24T13:50:54.606Z,100.00
2022-11-24T13:53:45.090Z,100.00
2022-11-24T13:56:31.166Z,100.00
2022-11-24T13:59:24.259Z,100.00
2022-11-24T14:02:23.255Z,100.00
2022-11-24T14:05:13.463Z,100.00
2022-11-24T14:07:58.433Z,100.00
2022-11-24T14:10:43.603Z,100.00
2022-11-24T14:13:29.966Z,100.00
2022-11-24T14:16:14.857Z,100.00
2022-11-24T14:19:09.960Z,100.00
2022-11-24T14:21:55.334Z,100.00
2022-11-24T14:24:41.831Z,100.00
2022-11-24T14:27:38.929Z,100.00
2022-11-24T14:30:25.510Z,100.00
2022-11-24T14:33:11.984Z,100.00
2022-11-24T14:35:56.862Z,100.00
2022-11-24T14:38:42.627Z,99.89
2022-11-24T14:41:27.684Z,99.63
2022-11-24T14:44:19.813Z,99.35
2022-11-24T14:47:31.631Z,98.67
2022-11-24T14:50:18.685Z,96.90
2022-11-24T14:53:14.948Z,95.47
2022-11-24T14:56:27.031Z,93.93
2022-11-24T14:59:27.778Z,92.98
2022-11-24T15:02:40.203Z,92.56
2022-11-24T15:05:51.519Z,92.83
2022-11-24T15:08:46.861Z,94.20
2022-11-24T15:11:35.233Z,94.95
2022-11-24T15:14:36.671Z,95.84
2022-11-24T15:17:24.983Z,96.09
2022-11-24T15:20:17.273Z,96.88
2022-11-24T15:23:22.886Z,97.38
2022-11-24T15:26:11.266Z,97.73
2022-11-24T15:28:56.242Z,98.35
2022-11-24T15:31:45.119Z,98.66
2022-11-24T15:34:33.025Z,98.87
2022-11-24T15:37:18.143Z,98.60
2022-11-24T15:40:03.167Z,99.09
2022-11-24T15:42:59.637Z,98.98
2022-11-24T15:45:48.478Z,99.34
2022-11-24T15:48:33.876Z,100.00
2022-11-24T15:51:19.624Z,100.00
2022-11-24T15:54:04.976Z,100.00
2022-11-24T15:56:50.146Z,100.00
2022-11-24T15:59:34.951Z,100.00
2022-11-24T16:02:20.435Z,100.00
2022-11-24T16:05:08.618Z,100.00
2022-11-24T16:07:54.087Z,100.00
2022-11-24T16:10:41.639Z,100.00
2022-11-24T16:13:27.770Z,100.00
2022-11-24T16:16:13.603Z,100.00
2022-11-24T16:18:58.940Z,100.00
2022-11-24T16:21:47.704Z,100.00
2022-11-24T16:24:33.047Z,100.00
2022-11-24T16:27:20.065Z,100.00
2022-11-24T16:30:07.550Z,100.00
2022-11-24T16:32:55.955Z,100.00
2022-11-24T16:35:41.483Z,100.00
2022-11-24T16:38:26.659Z,100.00
2022-11-24T16:41:12.233Z,100.00
2022-11-24T16:44:01.512Z,100.00
2022-11-24T16:46:46.293Z,100.00
2022-11-24T16:49:31.364Z,100.00
2022-11-24T16:52:16.823Z,100.00
2022-11-24T16:55:01.741Z,100.00
2022-11-24T16:57:46.833Z,100.00
2022-11-24T17:00:35.075Z,100.00
2022-11-24T17:03:23.628Z,100.00
2022-11-24T17:06:11.592Z,100.00
2022-11-24T17:09:00.231Z,100.00
2022-11-24T17:11:45.489Z,100.00
2022-11-24T17:14:30.529Z,100.00
2022-11-24T17:17:15.701Z,100.00
2022-11-24T17:20:00.959Z,100.00
2022-11-24T17:22:46.340Z,100.00
2022-11-24T17:25:32.620Z,100.00
2022-11-24T17:28:17.745Z,100.00
2022-11-24T17:31:27.994Z,100.00
2022-11-24T17:34:13.735Z,100.00
2022-11-24T17:36:58.875Z,100.00
2022-11-24T17:39:54.824Z,100.00
2022-11-24T17:42:48.951Z,100.00
2022-11-24T17:45:34.424Z,100.00
2022-11-24T17:48:19.747Z,100.00
2022-11-24T17:51:13.210Z,100.00
2022-11-24T17:53:58.213Z,100.00
2022-11-24T17:56:43.877Z,100.00
2022-11-24T17:59:28.939Z,100.00
2022-11-24T18:02:13.880Z,100.00
2022-11-24T18:04:59.278Z,100.00
2022-11-24T18:07:44.627Z,100.00
2022-11-24T18:10:32.292Z,100.00
2022-11-24T18:13:34.112Z,100.00
2022-11-24T18:16:23.302Z,100.00
2022-11-24T18:19:09.894Z,100.00
2022-11-24T18:21:55.767Z,100.00
2022-11-24T18:24:41.155Z,100.00
2022-11-24T18:27:26.153Z,100.00
2022-11-24T18:30:11.568Z,100.00
2022-11-24T18:32:58.525Z,100.00
2022-11-24T18:36:02.392Z,100.00
2022-11-24T18:38:47.604Z,100.00
2022-11-24T18:41:32.745Z,100.00
2022-11-24T18:44:18.000Z,100.00
2022-11-24T18:47:04.309Z,100.00
2022-11-24T18:49:49.542Z,100.00
2022-11-24T18:52:34.493Z,100.00
2022-11-24T18:55:19.309Z,100.00
2022-11-24T18:58:05.837Z,100.00
2022-11-24T19:00:51.973Z,100.00
2022-11-24T19:03:43.598Z,100.00
2022-11-24T19:06:36.422Z,100.00
2022-11-24T19:09:21.681Z,100.00
2022-11-24T19:12:09.252Z,100.00
2022-11-24T19:14:55.621Z,100.00
2022-11-24T19:17:47.210Z,100.00
2022-11-24T19:20:33.963Z,100.00
2022-11-24T19:23:20.435Z,100.00
2022-11-24T19:26:08.168Z,100.00
2022-11-24T19:28:53.020Z,100.00
2022-11-24T19:31:38.507Z,100.00
2022-11-24T19:34:24.225Z,100.00
2022-11-24T19:37:09.720Z,100.00
2022-11-24T19:39:54.753Z,100.00
2022-11-24T19:42:40.097Z,100.00
2022-11-24T19:45:25.331Z,100.00
2022-11-24T19:48:10.806Z,100.00
2022-11-24T19:51:04.457Z,100.00
2022-11-24T19:53:49.771Z,100.00
2022-11-24T19:56:36.461Z,100.00
2022-11-24T19:59:21.579Z,100.00
2022-11-24T20:02:07.062Z,100.00
2022-11-24T20:04:52.795Z,100.00
2022-11-24T20:07:37.787Z,100.00
2022-11-24T20:10:23.022Z,100.00
2022-11-24T20:13:08.011Z,100.00
2022-11-24T20:15:53.049Z,100.00
2022-11-24T20:18:42.331Z,100.00
2022-11-24T20:21:29.343Z,100.00
2022-11-24T20:24:19.773Z,100.00
2022-11-24T20:27:04.916Z,100.00
2022-11-24T20:29:49.796Z,100.00
2022-11-24T20:32:35.187Z,100.00
2022-11-24T20:35:20.079Z,100.00
2022-11-24T20:38:05.102Z,100.00
2022-11-24T20:40:50.020Z,100.00
2022-11-24T20:43:36.139Z,100.00
2022-11-24T20:46:26.980Z,100.00
2022-11-24T20:49:15.784Z,100.00
2022-11-24T20:52:00.817Z,100.00
2022-11-24T20:54:46.318Z,100.00
2022-11-24T20:57:31.528Z,100.00
2022-11-24T21:00:16.737Z,100.00
2022-11-24T21:03:02.931Z,100.00
2022-11-24T21:05:54.798Z,100.00
2022-11-24T21:08:42.302Z,100.00
2022-11-24T21:11:28.117Z,100.00
2022-11-24T21:14:13.135Z,100.00
2022-11-24T21:16:58.188Z,100.00
2022-11-24T21:19:43.411Z,100.00
2022-11-24T21:22:28.585Z,100.00
2022-11-24T21:25:19.657Z,100.00
2022-11-24T21:28:05.203Z,100.00
2022-11-24T21:30:50.153Z,100.00
2022-11-24T21:33:42.730Z,100.00
2022-11-24T21:36:28.003Z,100.00
2022-11-24T21:39:14.399Z,100.00
2022-11-24T21:41:59.630Z,100.00
2022-11-24T21:44:44.638Z,100.00
2022-11-24T21:47:29.415Z,100.00
2022-11-24T21:50:15.994Z,100.00
2022-11-24T21:53:03.578Z,100.00
2022-11-24T21:55:59.782Z,100.00
2022-11-24T21:58:50.257Z,100.00
2022-11-24T22:01:36.031Z,100.00
2022-11-24T22:04:21.284Z,100.00
2022-11-24T22:07:06.178Z,100.00
2022-11-24T22:09:51.457Z,100.00
2022-11-24T22:12:36.882Z,100.00
2022-11-24T22:15:22.360Z,100.00
2022-11-24T22:18:07.651Z,100.00
2022-11-24T22:20:55.788Z,100.00
2022-11-24T22:23:41.266Z,100.00
2022-11-24T22:26:28.026Z,100.00
2022-11-24T22:29:19.388Z,100.00
2022-11-24T22:32:04.679Z,100.00
2022-11-24T22:34:49.867Z,100.00
2022-11-24T22:37:34.755Z,100.00
2022-11-24T22:40:19.708Z,100.00
2022-11-24T22:43:04.987Z,100.00
2022-11-24T22:45:49.987Z,100.00
2022-11-24T22:48:35.562Z,100.00
2022-11-24T22:51:26.203Z,100.00
2022-11-24T22:54:12.139Z,100.00
2022-11-24T22:56:56.991Z,100.00
2022-11-24T22:59:41.940Z,100.00
2022-11-24T23:02:28.288Z,100.00
2022-11-24T23:05:17.997Z,100.00
2022-11-24T23:08:05.720Z,100.00
2022-11-24T23:10:51.021Z,100.00
2022-11-24T23:13:36.407Z,100.00
2022-11-24T23:16:22.245Z,100.00
2022-11-24T23:19:08.504Z,100.00
2022-11-24T23:21:53.567Z,100.00
2022-11-24T23:24:38.484Z,100.00
2022-11-24T23:27:23.696Z,100.00
2022-11-24T23:30:08.860Z,100.00
2022-11-24T23:32:54.077Z,100.00
2022-11-24T23:35:39.305Z,100.00
2022-11-24T23:38:26.696Z,100.00
2022-11-24T23:41:17.857Z,100.00
2022-11-24T23:44:03.420Z,100.00
2022-11-24T23:46:48.624Z,100.00
2022-11-24T23:49:33.565Z,100.00
2022-11-24T23:52:18.348Z,100.00
2022-11-24T23:55:03.652Z,100.00
2022-11-24T23:57:48.517Z,100.00
